M74 weather

Bald Knob Municipal Airport
Bald Knob, Arkansas, United States

Public forecast

Using degrees Fahrenheit for public forecast. Weather courtesy of forecast.io.

METAR (pilot weather report)

Closest report is Searcy Municipal Airport, 10.3 nm (19.1 km) WSW. Retrieved 2019/06/19 23:56 UTC (1 hour ago):

KSRC 192356Z AUTO 10SM FEW060 33/23 A2966 RMK AO2 SLP042 T03280228 10333 20294 58013 $

TAF (pilot weather forecast)

Closest forecast is Little Rock Air Force Base, 37.1 nm (68.7 km) SW. Retrieved 2019/06/19 23:03 UTC (2 hours ago):

TAF KLRF 192300Z 1923/2105 23010G15KT 9999 SCT050 QNH2965INS BECMG 2000/2001 21006KT 9000 -SHRA SCT045 QNH2965INS TEMPO 2001/2006 VRB35G45KT 3200 TSRA BKN020CB OVC045 BECMG 2007/2008 VRB06KT 8000 BR FEW020 QNH2969INS BECMG 2011/2012 VRB06KT 9999 NSW FEW013 QNH2974INS TX35/2022Z TN22/2011Z